Cul'Man, Russia
Current Conditions -  °F | °C
As of 11:30 AM on Saturday 25 Oct 2014 (Local Time) from UEEE Reporting Station
Haze Haze  
Wind Chill: -4°   Ceiling: Unl
Heat Index: -4°   Visibility: 3mi
Dew Point: -9°   Wind: 2mph
Humidity: 78%   Direction: 160°SSE
Pressure: 30.24"   Gusts: NA
Location:  56.83°N, 124.87°E
Report Text: UEEE 250230Z 16001MPS 5000 BR SCT200 M20/M23 Q1024 NOSIG RMKQFE759 23490150
Loading
Personal Weather Stations






























Interactive Weather Map
Tropical Storm Tracking
New forecast layout! Learn more

10-Day Weather Forecast

Advertisements
Track Severe Weather on mobile